Time;durP1;ratioP1;P1;durP2;ratioP2;P2;SDS_P1;SDS_P2;PMS_P1;PMS_P2;Temp;Humidity;BMP_temperature;BMP_pressure;BME280_temperature;BME280_humidity;BME280_pressure;Samples;Min_cycle;Max_cycle;Signal;HPM_P1;HPM_P2
2023/01/25 00:00:21;;;;;;;87.72;36.13;;;;;;;;;;1043403;28;20021;-74
2023/01/25 00:00:52;;;;;;;85.70;36.67;;;;;;;;;;1043508;28;20028;-74
2023/01/25 00:01:22;;;;;;;73.93;30.17;;;;;;;;;;1043506;28;20506;-74
2023/01/25 00:01:53;;;;;;;79.18;33.15;;;;;;;;;;1043700;28;20024;-73
2023/01/25 00:02:23;;;;;;;93.65;34.80;;;;;;;;;;1043873;28;20112;-74
2023/01/25 00:02:54;;;;;;;85.53;35.03;;;;;;;;;;1044074;28;20040;-74
2023/01/25 00:03:24;;;;;;;83.38;34.92;;;;;;;;;;1043613;28;20021;-74
2023/01/25 00:03:55;;;;;;;96.72;37.22;;;;;;;;;;1043977;28;20020;-74
2023/01/25 00:04:26;;;;;;;100.97;40.10;;;;;;;;;;1043432;28;20469;-74
2023/01/25 00:04:56;;;;;;;97.68;40.40;;;;;;;;;;1043698;28;20493;-74
2023/01/25 00:05:27;;;;;;;108.20;39.35;;;;;;;;;;1043508;28;20051;-74
2023/01/25 00:05:59;;;;;;;71.75;32.60;;;;;;;;;;1043545;28;20067;-74
2023/01/25 00:06:29;;;;;;;59.47;29.30;;;;;;;;;;1042793;28;20527;-74
2023/01/25 00:07:00;;;;;;;80.75;34.58;;;;;;;;;;1044073;28;20078;-74
2023/01/25 00:07:30;;;;;;;72.50;30.90;;;;;;;;;;1043578;28;20071;-74
2023/01/25 00:08:01;;;;;;;79.82;32.45;;;;;;;;;;1043992;28;20043;-74
2023/01/25 00:08:31;;;;;;;71.78;30.13;;;;;;;;;;1043394;28;20017;-74
2023/01/25 00:09:02;;;;;;;72.40;30.90;;;;;;;;;;1039421;28;20471;-74
2023/01/25 00:09:33;;;;;;;57.38;28.00;;;;;;;;;;1039299;28;20545;-75
2023/01/25 00:10:03;;;;;;;53.65;25.90;;;;;;;;;;1039736;28;20053;-74
2023/01/25 00:10:34;;;;;;;75.20;29.35;;;;;;;;;;1044196;28;20013;-74
2023/01/25 00:11:04;;;;;;;70.13;27.73;;;;;;;;;;1044167;28;20023;-75
2023/01/25 00:11:36;;;;;;;73.63;32.85;;;;;;;;;;1045108;28;20465;-74
2023/01/25 00:12:06;;;;;;;72.97;30.60;;;;;;;;;;1043957;28;20029;-75
2023/01/25 00:12:37;;;;;;;64.35;28.42;;;;;;;;;;1044059;28;20040;-74
2023/01/25 00:13:07;;;;;;;68.57;29.20;;;;;;;;;;1043805;28;20078;-74
2023/01/25 00:13:38;;;;;;;80.47;30.75;;;;;;;;;;1043763;28;20027;-74
2023/01/25 00:14:09;;;;;;;66.03;27.95;;;;;;;;;;1043760;28;20493;-74
2023/01/25 00:14:40;;;;;;;75.10;31.17;;;;;;;;;;1043980;28;20028;-74
2023/01/25 00:15:10;;;;;;;70.53;30.27;;;;;;;;;;1043264;28;20641;-74
2023/01/25 00:15:41;;;;;;;80.55;33.22;;;;;;;;;;1043591;28;20107;-74
2023/01/25 00:16:11;;;;;;;68.55;27.23;;;;;;;;;;1043411;28;20028;-74
2023/01/25 00:16:42;;;;;;;66.55;26.83;;;;;;;;;;1043633;28;20028;-74
2023/01/25 00:17:12;;;;;;;47.92;25.17;;;;;;;;;;1042899;28;20032;-74
2023/01/25 00:17:43;;;;;;;60.35;24.52;;;;;;;;;;1043789;28;20017;-74
2023/01/25 00:18:14;;;;;;;47.25;24.55;;;;;;;;;;1043419;28;20021;-74
2023/01/25 00:18:44;;;;;;;51.50;22.88;;;;;;;;;;1043418;28;20044;-74
2023/01/25 00:19:15;;;;;;;50.42;22.73;;;;;;;;;;1043541;28;20052;-74
2023/01/25 00:19:45;;;;;;;45.63;23.58;;;;;;;;;;1041200;28;20033;-74
2023/01/25 00:20:16;;;;;;;56.10;24.90;;;;;;;;;;1037248;28;20029;-74
2023/01/25 00:20:46;;;;;;;48.65;22.50;;;;;;;;;;1041348;28;20025;-74
2023/01/25 00:21:18;;;;;;;54.05;26.13;;;;;;;;;;1042585;28;20022;-74
2023/01/25 00:21:49;;;;;;;57.17;26.83;;;;;;;;;;1040641;28;20148;-74
2023/01/25 00:22:19;;;;;;;46.45;22.15;;;;;;;;;;1036576;28;20586;-74
2023/01/25 00:22:50;;;;;;;42.67;21.38;;;;;;;;;;1041586;28;20013;-74
2023/01/25 00:23:20;;;;;;;41.20;20.42;;;;;;;;;;1041478;28;20023;-74
2023/01/25 00:23:51;;;;;;;50.83;23.52;;;;;;;;;;1042934;28;20480;-74
2023/01/25 00:24:22;;;;;;;38.70;22.58;;;;;;;;;;1047799;28;20154;-74
2023/01/25 00:24:52;;;;;;;49.67;22.58;;;;;;;;;;1043234;28;20031;-74
2023/01/25 00:25:23;;;;;;;54.70;24.40;;;;;;;;;;1043273;28;20546;-74
2023/01/25 00:25:56;;;;;;;48.15;24.35;;;;;;;;;;1043528;28;20029;-74
2023/01/25 00:26:30;;;;;;;49.65;24.23;;;;;;;;;;1043454;28;20021;-74
2023/01/25 00:27:01;;;;;;;43.53;20.80;;;;;;;;;;1042812;28;20489;-74
2023/01/25 00:27:32;;;;;;;40.95;21.15;;;;;;;;;;1043500;28;20025;-74
2023/01/25 00:28:02;;;;;;;51.63;25.00;;;;;;;;;;1043752;28;20032;-74
2023/01/25 00:28:33;;;;;;;46.30;22.65;;;;;;;;;;1043491;28;20025;-74
2023/01/25 00:29:04;;;;;;;46.13;24.23;;;;;;;;;;1043961;28;20021;-74
2023/01/25 00:29:34;;;;;;;49.42;24.30;;;;;;;;;;1043651;28;20012;-74
2023/01/25 00:30:05;;;;;;;50.78;24.90;;;;;;;;;;1043833;28;20009;-74
2023/01/25 00:30:35;;;;;;;53.55;25.80;;;;;;;;;;1043904;28;20385;-74
2023/01/25 00:31:07;;;;;;;51.22;26.58;;;;;;;;;;1043474;28;20024;-74
2023/01/25 00:31:43;;;;;;;59.97;24.92;;;;;;;;;;1043093;28;20032;-74
2023/01/25 00:32:14;;;;;;;54.13;26.30;;;;;;;;;;1039215;28;20036;-74
2023/01/25 00:33:06;;;;;;;70.30;27.42;;;;;;;;;;1039471;28;20052;-74
2023/01/25 00:33:37;;;;;;;59.47;24.75;;;;;;;;;;1043294;28;20028;-74
2023/01/25 00:34:26;;;;;;;54.40;27.15;;;;;;;;;;1043679;28;20066;-74
2023/01/25 00:34:56;;;;;;;67.80;28.60;;;;;;;;;;1043723;28;20025;-74
2023/01/25 00:35:31;;;;;;;54.78;27.52;;;;;;;;;;1043784;28;20025;-74
2023/01/25 00:36:02;;;;;;;69.57;32.42;;;;;;;;;;1043394;28;20032;-74
2023/01/25 00:36:38;;;;;;;68.57;31.98;;;;;;;;;;1043717;28;20120;-74
2023/01/25 00:37:12;;;;;;;78.80;38.63;;;;;;;;;;1043983;28;20056;-74
2023/01/25 00:37:43;;;;;;;78.82;37.60;;;;;;;;;;1043789;28;20017;-74
2023/01/25 00:38:34;;;;;;;80.60;35.05;;;;;;;;;;1042784;28;20021;-74
2023/01/25 00:39:05;;;;;;;67.68;34.05;;;;;;;;;;1043465;28;20063;-74
2023/01/25 00:39:35;;;;;;;76.68;32.60;;;;;;;;;;1043021;28;20024;-74
2023/01/25 00:40:06;;;;;;;71.10;32.38;;;;;;;;;;1043224;28;20423;-74
2023/01/25 00:40:37;;;;;;;75.38;33.40;;;;;;;;;;1044104;28;20020;-74
2023/01/25 00:41:08;;;;;;;74.88;35.78;;;;;;;;;;1042373;28;20112;-74
2023/01/25 00:41:38;;;;;;;95.63;43.58;;;;;;;;;;1043251;28;20032;-74
2023/01/25 00:42:09;;;;;;;86.20;43.80;;;;;;;;;;1043010;28;20033;-74
2023/01/25 00:42:40;;;;;;;86.80;40.15;;;;;;;;;;1043405;28;20027;-74
2023/01/25 00:43:13;;;;;;;79.75;39.80;;;;;;;;;;1043674;28;20040;-74
2023/01/25 00:43:43;;;;;;;83.22;36.95;;;;;;;;;;1042530;28;20047;-74
2023/01/25 00:44:14;;;;;;;79.40;37.58;;;;;;;;;;1043694;28;20025;-74
2023/01/25 00:44:45;;;;;;;90.38;41.97;;;;;;;;;;1043586;28;20024;-74
2023/01/25 00:45:16;;;;;;;75.85;35.17;;;;;;;;;;1043230;28;20021;-74
2023/01/25 00:45:46;;;;;;;72.13;35.60;;;;;;;;;;1043163;28;20123;-74
2023/01/25 00:46:17;;;;;;;68.82;33.90;;;;;;;;;;1043396;28;20427;-74
2023/01/25 00:46:48;;;;;;;75.97;34.75;;;;;;;;;;1043475;28;20527;-74
2023/01/25 00:47:19;;;;;;;71.68;34.40;;;;;;;;;;1043439;28;20032;-74
2023/01/25 00:47:53;;;;;;;67.78;34.45;;;;;;;;;;1043722;28;20809;-74
2023/01/25 00:48:23;;;;;;;78.32;36.72;;;;;;;;;;1042956;28;20021;-74
2023/01/25 00:48:54;;;;;;;71.47;34.45;;;;;;;;;;1043224;28;20472;-74
2023/01/25 00:49:26;;;;;;;89.68;35.55;;;;;;;;;;1043368;28;20116;-74
2023/01/25 00:49:56;;;;;;;81.15;38.72;;;;;;;;;;1043226;28;20156;-74
2023/01/25 00:50:27;;;;;;;73.07;35.70;;;;;;;;;;1043348;28;20025;-74
2023/01/25 00:51:00;;;;;;;79.72;35.72;;;;;;;;;;1043357;28;20550;-74
2023/01/25 00:51:31;;;;;;;79.13;34.17;;;;;;;;;;1042512;28;20060;-74
2023/01/25 00:52:02;;;;;;;73.40;35.53;;;;;;;;;;1039143;28;20024;-74
2023/01/25 00:52:32;;;;;;;73.25;32.38;;;;;;;;;;1039841;28;20017;-74
2023/01/25 00:53:03;;;;;;;76.82;35.85;;;;;;;;;;1043502;28;20436;-74
2023/01/25 00:53:33;;;;;;;83.00;36.67;;;;;;;;;;1043248;28;20021;-74
2023/01/25 00:54:04;;;;;;;95.25;39.75;;;;;;;;;;1043420;28;20036;-74
2023/01/25 00:54:34;;;;;;;74.85;34.13;;;;;;;;;;1043264;28;20031;-74
2023/01/25 00:55:05;;;;;;;91.57;37.72;;;;;;;;;;1043167;28;20529;-74
2023/01/25 00:55:36;;;;;;;84.68;38.28;;;;;;;;;;1039203;28;20092;-74
2023/01/25 00:56:06;;;;;;;90.38;37.10;;;;;;;;;;1043370;28;20083;-74
2023/01/25 00:56:37;;;;;;;81.65;37.83;;;;;;;;;;1043439;28;20383;-74
2023/01/25 00:57:07;;;;;;;86.80;37.95;;;;;;;;;;1043408;28;20017;-74
2023/01/25 00:57:38;;;;;;;82.88;34.97;;;;;;;;;;1043807;28;20029;-74
2023/01/25 00:58:08;;;;;;;77.32;32.78;;;;;;;;;;1043119;28;20029;-74
2023/01/25 00:58:39;;;;;;;88.93;37.92;;;;;;;;;;1043419;28;20032;-74
2023/01/25 00:59:10;;;;;;;81.97;34.58;;;;;;;;;;1043411;28;20021;-74
2023/01/25 00:59:43;;;;;;;107.57;43.92;;;;;;;;;;1043286;28;20086;-74
2023/01/25 01:00:14;;;;;;;87.05;38.65;;;;;;;;;;1042664;28;20468;-74
2023/01/25 01:00:44;;;;;;;90.20;37.15;;;;;;;;;;1043671;28;20017;-74
2023/01/25 01:01:15;;;;;;;90.93;36.58;;;;;;;;;;1043701;28;20021;-74
2023/01/25 01:01:45;;;;;;;82.93;38.20;;;;;;;;;;1043247;28;20017;-74
2023/01/25 01:02:16;;;;;;;83.40;36.80;;;;;;;;;;1043388;28;20029;-74
2023/01/25 01:02:46;;;;;;;87.65;37.67;;;;;;;;;;1043409;28;20048;-74
2023/01/25 01:03:17;;;;;;;92.15;33.67;;;;;;;;;;1043533;28;20064;-74
2023/01/25 01:03:47;;;;;;;77.30;33.35;;;;;;;;;;1043647;28;20098;-74
2023/01/25 01:04:18;;;;;;;77.57;32.83;;;;;;;;;;1043215;28;20053;-74
2023/01/25 01:04:49;;;;;;;85.75;34.92;;;;;;;;;;1043505;28;20078;-73
2023/01/25 01:05:19;;;;;;;71.97;32.40;;;;;;;;;;1044768;28;20025;-73
2023/01/25 01:06:09;;;;;;;87.00;34.80;;;;;;;;;;1043948;28;20016;-73
2023/01/25 01:06:40;;;;;;;70.18;29.85;;;;;;;;;;1043957;28;20029;-73
2023/01/25 01:07:12;;;;;;;67.75;33.47;;;;;;;;;;1044133;28;20424;-73
2023/01/25 01:07:43;;;;;;;73.07;30.20;;;;;;;;;;1044046;28;20036;-74
2023/01/25 01:08:14;;;;;;;69.72;34.20;;;;;;;;;;1043631;28;20028;-74
2023/01/25 01:08:44;;;;;;;75.53;33.78;;;;;;;;;;1043820;28;20032;-74
2023/01/25 01:09:16;;;;;;;75.45;34.35;;;;;;;;;;1043841;28;20028;-74
2023/01/25 01:09:46;;;;;;;87.53;37.10;;;;;;;;;;1043176;28;20033;-74
2023/01/25 01:10:17;;;;;;;76.65;33.00;;;;;;;;;;1038990;28;20036;-74
2023/01/25 01:10:48;;;;;;;72.13;34.92;;;;;;;;;;1039461;28;20152;-74
2023/01/25 01:11:18;;;;;;;73.40;32.47;;;;;;;;;;1039196;28;20025;-74
2023/01/25 01:11:49;;;;;;;77.85;34.97;;;;;;;;;;1043365;28;20082;-74
2023/01/25 01:12:19;;;;;;;79.15;36.17;;;;;;;;;;1043507;28;20021;-74
2023/01/25 01:12:50;;;;;;;68.57;33.65;;;;;;;;;;1043855;28;20021;-74
2023/01/25 01:13:20;;;;;;;73.70;32.85;;;;;;;;;;1043845;28;20494;-74
2023/01/25 01:13:51;;;;;;;72.45;28.42;;;;;;;;;;1043312;28;20025;-74
2023/01/25 01:14:22;;;;;;;60.80;29.90;;;;;;;;;;1043430;28;20048;-74
2023/01/25 01:14:52;;;;;;;70.03;32.55;;;;;;;;;;1042922;28;20091;-74
2023/01/25 01:15:23;;;;;;;79.97;36.17;;;;;;;;;;1043471;28;20104;-74
2023/01/25 01:15:54;;;;;;;72.07;37.28;;;;;;;;;;1043959;28;20432;-74
2023/01/25 01:16:25;;;;;;;76.75;35.40;;;;;;;;;;1044848;28;20151;-74
2023/01/25 01:16:56;;;;;;;88.78;39.40;;;;;;;;;;1043612;28;20116;-74
2023/01/25 01:17:27;;;;;;;86.53;38.15;;;;;;;;;;1043207;28;20617;-74
2023/01/25 01:17:57;;;;;;;91.43;39.78;;;;;;;;;;1044832;28;20036;-74
2023/01/25 01:18:32;;;;;;;81.78;37.33;;;;;;;;;;1045164;28;20021;-74
2023/01/25 01:19:02;;;;;;;80.10;39.97;;;;;;;;;;1042899;28;20055;-74
2023/01/25 01:19:33;;;;;;;83.78;37.88;;;;;;;;;;1045577;28;20031;-74
2023/01/25 01:20:04;;;;;;;83.18;38.00;;;;;;;;;;1045192;28;20036;-74
2023/01/25 01:20:34;;;;;;;73.07;34.92;;;;;;;;;;1041732;28;20026;-73
2023/01/25 01:21:06;;;;;;;90.07;36.40;;;;;;;;;;1045566;28;20044;-73
2023/01/25 01:21:37;;;;;;;87.30;35.20;;;;;;;;;;1044139;28;20024;-74
2023/01/25 01:22:08;;;;;;;91.50;37.20;;;;;;;;;;1043468;28;20028;-74
2023/01/25 01:22:38;;;;;;;80.32;35.90;;;;;;;;;;1043482;28;20040;-74
2023/01/25 01:23:09;;;;;;;67.35;35.80;;;;;;;;;;1043423;28;20493;-74
2023/01/25 01:23:39;;;;;;;82.93;37.47;;;;;;;;;;1043281;28;20025;-74
2023/01/25 01:24:10;;;;;;;88.43;37.42;;;;;;;;;;1043336;28;20075;-74
2023/01/25 01:24:41;;;;;;;69.85;35.55;;;;;;;;;;1043779;28;20050;-74
2023/01/25 01:25:12;;;;;;;75.88;38.85;;;;;;;;;;1043269;28;20163;-74
2023/01/25 01:25:42;;;;;;;108.40;48.70;;;;;;;;;;1043380;28;20037;-74
2023/01/25 01:26:15;;;;;;;103.57;44.25;;;;;;;;;;1043468;28;20392;-74
2023/01/25 01:26:45;;;;;;;108.10;48.92;;;;;;;;;;1042449;28;20127;-74
2023/01/25 01:27:16;;;;;;;98.78;46.10;;;;;;;;;;1043436;28;20029;-74
2023/01/25 01:27:46;;;;;;;98.57;42.35;;;;;;;;;;1043335;28;20021;-74
2023/01/25 01:28:17;;;;;;;113.85;48.03;;;;;;;;;;1043416;28;20490;-74
2023/01/25 01:28:47;;;;;;;92.28;40.75;;;;;;;;;;1043759;28;20021;-74
2023/01/25 01:29:18;;;;;;;108.00;45.95;;;;;;;;;;1043041;28;20021;-74
2023/01/25 01:29:48;;;;;;;94.22;41.30;;;;;;;;;;1043629;28;20029;-74
2023/01/25 01:30:19;;;;;;;92.53;42.38;;;;;;;;;;1043411;28;20036;-74
2023/01/25 01:30:49;;;;;;;96.70;39.83;;;;;;;;;;1044740;28;20027;-74
2023/01/25 01:31:21;;;;;;;100.15;42.20;;;;;;;;;;1044153;28;20477;-74
2023/01/25 01:31:52;;;;;;;98.18;41.65;;;;;;;;;;1043821;28;20025;-74
2023/01/25 01:32:23;;;;;;;85.55;36.97;;;;;;;;;;1044540;28;20025;-73
2023/01/25 01:32:53;;;;;;;98.68;42.35;;;;;;;;;;1040197;28;20056;-74
2023/01/25 01:33:24;;;;;;;87.28;38.45;;;;;;;;;;1040663;28;20059;-74
2023/01/25 01:33:55;;;;;;;95.82;41.25;;;;;;;;;;1041424;28;20025;-74
2023/01/25 01:34:26;;;;;;;100.05;43.55;;;;;;;;;;1040699;28;20093;-73
2023/01/25 01:34:56;;;;;;;107.53;43.70;;;;;;;;;;1044688;28;20032;-74
2023/01/25 01:35:30;;;;;;;108.80;47.25;;;;;;;;;;1044517;28;20017;-74
2023/01/25 01:36:10;;;;;;;117.85;49.58;;;;;;;;;;1043677;28;20025;-74
2023/01/25 01:36:41;;;;;;;106.07;45.30;;;;;;;;;;1044045;28;20059;-74
2023/01/25 01:37:11;;;;;;;115.72;49.10;;;;;;;;;;1044915;28;20078;-74
2023/01/25 01:37:42;;;;;;;101.43;47.17;;;;;;;;;;1044601;28;20443;-74
2023/01/25 01:38:12;;;;;;;111.90;51.97;;;;;;;;;;1044385;28;20029;-73
2023/01/25 01:38:43;;;;;;;119.78;55.20;;;;;;;;;;1044632;28;20527;-74
2023/01/25 01:39:13;;;;;;;152.27;63.28;;;;;;;;;;1043345;28;20070;-74
2023/01/25 01:39:44;;;;;;;133.10;62.55;;;;;;;;;;1043476;28;20027;-74
2023/01/25 01:40:15;;;;;;;156.75;71.80;;;;;;;;;;1044496;28;20425;-74
2023/01/25 01:40:46;;;;;;;355.48;156.30;;;;;;;;;;1044072;28;20028;-74
2023/01/25 01:41:17;;;;;;;396.70;173.07;;;;;;;;;;1044082;28;20054;-74
2023/01/25 01:41:48;;;;;;;319.52;135.63;;;;;;;;;;1043992;28;20028;-74
2023/01/25 01:42:18;;;;;;;327.77;142.73;;;;;;;;;;1039801;28;20025;-74
2023/01/25 01:43:13;;;;;;;279.02;120.10;;;;;;;;;;1044176;28;20032;-74
2023/01/25 01:43:44;;;;;;;165.18;78.82;;;;;;;;;;1039563;28;20425;-74
2023/01/25 01:44:17;;;;;;;222.98;90.72;;;;;;;;;;1043290;28;20025;-74
2023/01/25 01:44:52;;;;;;;211.27;87.93;;;;;;;;;;1043878;28;20013;-73
2023/01/25 01:45:41;;;;;;;210.32;87.95;;;;;;;;;;1044736;28;20056;-74
2023/01/25 01:46:17;;;;;;;175.77;73.45;;;;;;;;;;1048066;28;20519;-74
2023/01/25 01:46:52;;;;;;;152.85;68.72;;;;;;;;;;1044280;28;20024;-74
2023/01/25 01:47:27;;;;;;;162.20;70.72;;;;;;;;;;1043827;28;20203;-74
2023/01/25 01:47:58;;;;;;;186.27;75.43;;;;;;;;;;1044193;28;20021;-75
2023/01/25 01:48:52;;;;;;;189.80;79.55;;;;;;;;;;1043918;28;20020;-74
2023/01/25 01:49:25;;;;;;;194.27;78.95;;;;;;;;;;1042980;28;20025;-74
2023/01/25 01:50:13;;;;;;;225.13;90.43;;;;;;;;;;1043723;28;20025;-74
2023/01/25 01:50:44;;;;;;;265.17;106.72;;;;;;;;;;1044147;28;20060;-74
2023/01/25 01:51:18;;;;;;;308.65;120.65;;;;;;;;;;1047958;28;20029;-74
2023/01/25 01:51:53;;;;;;;263.15;105.85;;;;;;;;;;1047433;28;20017;-73
2023/01/25 01:52:27;;;;;;;293.58;120.40;;;;;;;;;;1043398;28;20771;-74
2023/01/25 01:52:57;;;;;;;344.25;139.00;;;;;;;;;;1044549;28;20029;-73
2023/01/25 01:53:29;;;;;;;202.05;82.78;;;;;;;;;;1043087;28;20071;-74
2023/01/25 01:54:02;;;;;;;268.20;110.18;;;;;;;;;;1044087;28;20545;-73
2023/01/25 01:54:35;;;;;;;240.80;100.28;;;;;;;;;;1043550;28;20492;-74
2023/01/25 01:55:17;;;;;;;250.40;105.95;;;;;;;;;;1043282;28;20021;-74
2023/01/25 01:55:47;;;;;;;256.90;100.72;;;;;;;;;;1045324;28;20039;-74
2023/01/25 01:56:21;;;;;;;211.35;81.95;;;;;;;;;;1047339;28;20057;-73
2023/01/25 01:56:55;;;;;;;199.68;85.97;;;;;;;;;;1048862;28;20020;-74
2023/01/25 01:57:29;;;;;;;222.00;91.57;;;;;;;;;;1046057;28;20027;-74
2023/01/25 01:58:02;;;;;;;201.60;81.82;;;;;;;;;;1043119;28;20024;-74
2023/01/25 01:58:32;;;;;;;190.73;82.53;;;;;;;;;;1043389;28;20036;-74
2023/01/25 01:59:04;;;;;;;184.35;79.45;;;;;;;;;;1044233;28;20421;-74
2023/01/25 01:59:40;;;;;;;172.13;73.78;;;;;;;;;;1042977;28;20028;-74
2023/01/25 02:00:13;;;;;;;181.90;76.40;;;;;;;;;;1044248;28;20029;-74
2023/01/25 02:00:43;;;;;;;181.82;72.78;;;;;;;;;;1043882;28;20023;-74
2023/01/25 02:01:15;;;;;;;210.23;83.60;;;;;;;;;;1044097;28;20021;-74
2023/01/25 02:01:46;;;;;;;171.82;76.82;;;;;;;;;;1043932;28;20033;-74
2023/01/25 02:02:16;;;;;;;192.73;83.30;;;;;;;;;;1044133;28;20489;-74
2023/01/25 02:02:48;;;;;;;217.07;87.57;;;;;;;;;;1044683;28;20479;-74
2023/01/25 02:03:18;;;;;;;224.57;89.63;;;;;;;;;;1042803;28;20041;-73
2023/01/25 02:03:49;;;;;;;209.20;88.32;;;;;;;;;;1042532;28;20013;-74
2023/01/25 02:04:21;;;;;;;209.15;89.13;;;;;;;;;;1043783;28;20056;-74
2023/01/25 02:04:53;;;;;;;218.27;94.45;;;;;;;;;;1048795;28;20488;-73
2023/01/25 02:05:27;;;;;;;215.75;90.63;;;;;;;;;;1046521;28;20071;-74
2023/01/25 02:06:07;;;;;;;214.75;92.22;;;;;;;;;;1046008;28;20488;-74
2023/01/25 02:06:38;;;;;;;223.52;95.93;;;;;;;;;;1044964;28;20776;-74
2023/01/25 02:07:12;;;;;;;228.02;102.80;;;;;;;;;;1045495;28;20080;-74
2023/01/25 02:07:44;;;;;;;230.30;106.10;;;;;;;;;;1043596;28;20102;-74
2023/01/25 02:08:14;;;;;;;236.93;108.25;;;;;;;;;;1042941;28;20059;-74
2023/01/25 02:08:45;;;;;;;262.05;111.68;;;;;;;;;;1043247;28;20020;-74
2023/01/25 02:09:17;;;;;;;259.50;115.40;;;;;;;;;;1043707;28;20021;-74
2023/01/25 02:09:49;;;;;;;258.90;107.30;;;;;;;;;;1045160;28;20116;-73
2023/01/25 02:10:21;;;;;;;243.68;113.60;;;;;;;;;;1046948;28;20025;-73
2023/01/25 02:10:51;;;;;;;264.75;108.85;;;;;;;;;;1044484;28;20029;-74
2023/01/25 02:11:23;;;;;;;264.17;112.90;;;;;;;;;;1043600;28;20044;-74
2023/01/25 02:11:54;;;;;;;280.98;118.57;;;;;;;;;;1044014;28;20424;-74
2023/01/25 02:12:24;;;;;;;273.08;122.57;;;;;;;;;;1043516;28;20033;-74
2023/01/25 02:12:55;;;;;;;275.33;119.57;;;;;;;;;;1039926;28;20025;-74
2023/01/25 02:13:27;;;;;;;287.13;118.82;;;;;;;;;;1039350;28;20030;-74
2023/01/25 02:13:58;;;;;;;306.65;119.85;;;;;;;;;;1043843;28;20031;-74
2023/01/25 02:14:29;;;;;;;318.08;130.27;;;;;;;;;;1043167;28;20017;-74
2023/01/25 02:15:00;;;;;;;298.13;117.05;;;;;;;;;;1047610;28;20029;-74
2023/01/25 02:15:39;;;;;;;295.83;124.93;;;;;;;;;;1046770;28;20020;-74
2023/01/25 02:16:14;;;;;;;237.20;105.83;;;;;;;;;;1044250;28;20439;-74
2023/01/25 02:16:45;;;;;;;263.58;118.15;;;;;;;;;;1043610;28;20052;-74
2023/01/25 02:17:18;;;;;;;307.33;121.30;;;;;;;;;;1043756;28;20056;-74
2023/01/25 02:17:50;;;;;;;315.33;121.75;;;;;;;;;;1044038;28;20729;-74
2023/01/25 02:18:20;;;;;;;293.75;116.40;;;;;;;;;;1043608;28;20020;-74
2023/01/25 02:18:52;;;;;;;278.63;107.40;;;;;;;;;;1044032;28;20025;-74
2023/01/25 02:19:37;;;;;;;272.67;104.43;;;;;;;;;;1043138;28;20473;-74
2023/01/25 02:20:18;;;;;;;283.58;111.25;;;;;;;;;;1042982;28;20020;-74
2023/01/25 02:20:53;;;;;;;252.13;105.05;;;;;;;;;;1042883;28;20059;-74
2023/01/25 02:21:24;;;;;;;278.88;112.38;;;;;;;;;;1041633;28;20013;-74
2023/01/25 02:21:55;;;;;;;275.65;111.78;;;;;;;;;;1043167;28;20025;-74
2023/01/25 02:22:30;;;;;;;319.73;120.72;;;;;;;;;;1043554;28;20108;-74
2023/01/25 02:23:09;;;;;;;273.77;112.97;;;;;;;;;;1046295;28;20112;-74
2023/01/25 02:23:51;;;;;;;252.17;104.83;;;;;;;;;;1046263;28;20067;-74
2023/01/25 02:24:30;;;;;;;218.23;94.18;;;;;;;;;;1047769;28;20768;-74
2023/01/25 02:25:07;;;;;;;237.10;98.30;;;;;;;;;;1042459;28;20059;-74
2023/01/25 02:25:40;;;;;;;223.20;96.55;;;;;;;;;;1042712;28;20020;-74
2023/01/25 02:26:11;;;;;;;204.20;92.57;;;;;;;;;;1043595;28;20039;-74
2023/01/25 02:26:42;;;;;;;197.98;93.85;;;;;;;;;;1043035;28;20115;-74
2023/01/25 02:27:12;;;;;;;202.13;90.80;;;;;;;;;;1044181;28;20020;-74
2023/01/25 02:28:05;;;;;;;237.30;97.88;;;;;;;;;;1043285;28;20380;-74
2023/01/25 02:28:41;;;;;;;205.68;90.32;;;;;;;;;;1042827;28;20447;-74
2023/01/25 02:29:13;;;;;;;237.48;93.47;;;;;;;;;;1043589;28;20025;-74
2023/01/25 02:29:44;;;;;;;202.25;91.05;;;;;;;;;;1042605;28;20021;-74
2023/01/25 02:30:14;;;;;;;200.65;92.47;;;;;;;;;;1043524;28;20036;-74
2023/01/25 02:30:45;;;;;;;194.25;87.53;;;;;;;;;;1044407;28;20020;-74
2023/01/25 02:31:16;;;;;;;168.13;80.78;;;;;;;;;;1042982;28;20465;-74
2023/01/25 02:31:48;;;;;;;192.15;86.43;;;;;;;;;;1043141;28;20025;-73
2023/01/25 02:32:18;;;;;;;187.73;84.95;;;;;;;;;;1042159;28;21259;-74
2023/01/25 02:32:49;;;;;;;196.35;86.82;;;;;;;;;;1043692;28;20039;-74
2023/01/25 02:33:21;;;;;;;194.43;87.45;;;;;;;;;;1043375;28;20107;-74
2023/01/25 02:33:52;;;;;;;231.63;108.10;;;;;;;;;;1043558;28;20055;-74
2023/01/25 02:34:22;;;;;;;240.98;103.10;;;;;;;;;;1043157;28;20498;-74
2023/01/25 02:34:53;;;;;;;264.23;115.97;;;;;;;;;;1043132;28;20774;-74
2023/01/25 02:35:35;;;;;;;289.85;122.82;;;;;;;;;;1038716;28;20033;-74
2023/01/25 02:36:06;;;;;;;260.25;116.05;;;;;;;;;;1039300;28;20017;-74
2023/01/25 02:36:36;;;;;;;264.80;118.70;;;;;;;;;;1041053;28;20029;-74
2023/01/25 02:37:08;;;;;;;269.40;115.43;;;;;;;;;;1044043;28;20040;-74
2023/01/25 02:37:39;;;;;;;270.40;118.10;;;;;;;;;;1042581;28;21101;-74
2023/01/25 02:38:12;;;;;;;262.90;115.35;;;;;;;;;;1042888;28;20025;-74
2023/01/25 02:38:46;;;;;;;278.50;122.70;;;;;;;;;;1039518;28;20091;-74
2023/01/25 02:39:17;;;;;;;265.15;120.82;;;;;;;;;;1039327;28;20109;-74
2023/01/25 02:39:48;;;;;;;266.95;123.55;;;;;;;;;;1039874;28;20033;-74
2023/01/25 02:40:19;;;;;;;247.20;114.57;;;;;;;;;;1043315;28;20458;-74
2023/01/25 02:40:49;;;;;;;238.98;105.15;;;;;;;;;;1044091;28;20028;-74
2023/01/25 02:41:22;;;;;;;228.10;103.00;;;;;;;;;;1043531;28;20431;-73
2023/01/25 02:41:53;;;;;;;241.25;104.43;;;;;;;;;;1043189;28;20513;-74
2023/01/25 02:42:23;;;;;;;241.68;106.32;;;;;;;;;;1038880;28;20116;-73
2023/01/25 02:42:54;;;;;;;217.23;100.32;;;;;;;;;;1039932;28;20112;-74
2023/01/25 02:43:27;;;;;;;219.98;97.03;;;;;;;;;;1038818;28;20025;-74
2023/01/25 02:43:58;;;;;;;216.75;103.28;;;;;;;;;;1043666;28;20017;-74
2023/01/25 02:44:30;;;;;;;250.00;99.45;;;;;;;;;;1047038;28;20027;-74
2023/01/25 02:45:02;;;;;;;200.75;88.63;;;;;;;;;;1046596;28;20020;-74
2023/01/25 02:45:32;;;;;;;228.77;100.72;;;;;;;;;;1041723;28;20037;-74
2023/01/25 02:46:09;;;;;;;223.55;103.75;;;;;;;;;;1042735;28;20025;-74
2023/01/25 02:46:40;;;;;;;247.52;104.07;;;;;;;;;;1045796;28;20039;-74
2023/01/25 02:47:11;;;;;;;227.35;101.95;;;;;;;;;;1047690;28;20397;-74
2023/01/25 02:47:41;;;;;;;222.52;97.75;;;;;;;;;;1046885;28;20033;-74
2023/01/25 02:48:12;;;;;;;217.75;100.53;;;;;;;;;;1047838;28;20039;-74
2023/01/25 02:48:43;;;;;;;236.30;107.10;;;;;;;;;;1044191;28;20435;-74
2023/01/25 02:49:14;;;;;;;244.35;104.25;;;;;;;;;;1039582;28;20139;-74
2023/01/25 02:49:44;;;;;;;221.10;105.35;;;;;;;;;;1038638;28;20021;-74
2023/01/25 02:50:15;;;;;;;221.15;104.97;;;;;;;;;;1040348;28;20513;-73
2023/01/25 02:50:46;;;;;;;227.93;101.72;;;;;;;;;;1043909;28;20116;-74
2023/01/25 02:51:16;;;;;;;230.65;104.88;;;;;;;;;;1043278;28;20025;-74
2023/01/25 02:51:54;;;;;;;228.05;103.68;;;;;;;;;;1043947;28;20036;-74
2023/01/25 02:52:25;;;;;;;204.98;98.22;;;;;;;;;;1042895;28;20025;-74
2023/01/25 02:52:55;;;;;;;192.50;94.05;;;;;;;;;;1046949;28;20013;-73
2023/01/25 02:53:26;;;;;;;191.98;84.03;;;;;;;;;;1045575;28;20021;-74
2023/01/25 02:53:57;;;;;;;162.85;80.57;;;;;;;;;;1046131;28;20031;-73
2023/01/25 02:54:27;;;;;;;178.38;88.18;;;;;;;;;;1046612;28;20045;-75
2023/01/25 02:54:58;;;;;;;187.52;87.45;;;;;;;;;;1043523;28;20143;-75
2023/01/25 02:55:29;;;;;;;159.63;76.35;;;;;;;;;;1042581;28;20024;-76
2023/01/25 02:55:59;;;;;;;148.80;72.10;;;;;;;;;;1043255;28;20882;-75
2023/01/25 02:56:30;;;;;;;150.93;67.65;;;;;;;;;;1042987;28;20025;-75
2023/01/25 02:57:00;;;;;;;134.55;67.57;;;;;;;;;;1043911;28;20028;-76
2023/01/25 02:57:31;;;;;;;162.20;69.22;;;;;;;;;;1042465;28;20021;-75
2023/01/25 02:58:01;;;;;;;138.25;67.10;;;;;;;;;;1045898;28;20021;-75
2023/01/25 02:58:32;;;;;;;134.25;63.58;;;;;;;;;;1044026;28;20389;-76
2023/01/25 02:59:04;;;;;;;144.35;64.80;;;;;;;;;;1044568;28;20029;-76
2023/01/25 02:59:35;;;;;;;129.30;64.65;;;;;;;;;;1049415;28;20055;-76
2023/01/25 03:00:06;;;;;;;115.25;59.78;;;;;;;;;;1042761;28;20016;-76
2023/01/25 03:00:37;;;;;;;124.60;55.80;;;;;;;;;;1042570;28;20447;-75
2023/01/25 03:01:08;;;;;;;121.72;58.63;;;;;;;;;;1042489;28;20108;-75
2023/01/25 03:01:39;;;;;;;119.32;55.33;;;;;;;;;;1037921;28;20030;-75
2023/01/25 03:02:10;;;;;;;118.05;54.33;;;;;;;;;;1038364;28;20172;-77
2023/01/25 03:02:40;;;;;;;125.38;59.40;;;;;;;;;;1038482;28;20053;-76
2023/01/25 03:03:11;;;;;;;138.13;63.60;;;;;;;;;;1038224;28;20033;-76
2023/01/25 03:03:42;;;;;;;138.60;64.07;;;;;;;;;;1042081;28;20017;-77
2023/01/25 03:04:12;;;;;;;134.52;60.78;;;;;;;;;;1041178;28;20057;-75
2023/01/25 03:04:43;;;;;;;135.55;61.38;;;;;;;;;;1042288;28;20021;-77